• Join FlightAware (Why Join?)
  • Login
  • US Flag 
12:27AM EST


 

Airport Tracker/Info


-or-


 

Live Flight TrackerFlight Track Log ✈ SWA1725 ✈ 08-Apr-2013 ✈ KMDW - KBHM

Flight Track Log - Related Links

Times and Time Zones

All times are in EDT time to prevent confusion due to time zone crossing. See the SWA1725 flight status page for this flight to view local times or setup timezone preferences in your user account.

Time Position Orientation Groundspeed Altitude Reporting Facility
EDT Latitude Longitude Course Direction KTS MPH feet Rate Location/Type
09:37PM 41.8167 -87.7500 180° South 178 205 2,600  Level Chicago TRACON
09:38PM 41.7833 -87.7000 132° Southeast 209 241 3,100 2,940 Climbing Chicago TRACON
09:41PM 41.6392 -87.7419 192° South 275 316 11,700 3,900 Climbing Chicago Center
09:42PM 41.5672 -87.7847 204° Southwest 283 326 15,700 3,840 Climbing Chicago Center
09:43PM 41.1536 -87.8833 180° South  Level FlightAware Approximate
09:43PM 41.4869 -87.8325 204° Southwest 311 358 19,600  Level Chicago Center
09:44PM 41.3944 -87.8806 201° Southwest 350 403 22,300 2,340 Climbing Chicago Center
09:45PM 41.2856 -87.8883 183° South 384 442 24,500 2,400 Climbing Chicago Center
09:46PM 41.1772 -87.8989 184° South 388 447 27,300 1,680 Climbing Chicago Center
09:47PM 41.0642 -87.9181 187° South 407 468 28,000 300 Climbing Chicago Center
09:48PM 40.9508 -87.9406 189° South 413 475 28,000 1,440 Level Chicago Center
09:49PM 40.8161 -87.9642 188° South 407 468 31,000 2,400 Climbing Chicago Center
09:50PM 40.7022 -87.9675 181° South 418 481 33,000 1,800 Climbing Chicago Center
09:51PM 40.5806 -87.9436 172° South 444 511 34,800 1,800 Climbing Chicago Center
09:52PM 40.4572 -87.9214 172° South 449 517 36,800 1,560 Climbing Chicago Center
09:53PM 40.3361 -87.8986 172° South 444 511 38,000 600 Climbing Chicago Center
09:54PM 40.2144 -87.8772 172° South 443 510 38,100 540 Climbing Chicago Center
09:55PM 40.0853 -87.8536 172° South 447 514 39,100 1,020 Climbing Indianapolis Center
09:56PM 39.9539 -87.8292 172° South 463 533 40,100 900 Climbing Indianapolis Center
09:57PM 39.8247 -87.8064 172° South 466 536 41,000 420 Climbing Indianapolis Center
09:58PM 39.6978 -87.7831 172° South 461 531 41,000  Level Indianapolis Center
09:59PM 39.5722 -87.7603 172° South 457 526 41,000  Level Indianapolis Center
10:00PM 39.4458 -87.7361 172° South 457 526 41,000  Level Indianapolis Center
10:01PM 39.3192 -87.7133 172° South 459 528 41,000  Level Indianapolis Center
10:02PM 39.1922 -87.6911 172° South 460 529 41,000  Level Indianapolis Center
10:03PM 39.0658 -87.6686 172° South 458 527 41,000  Level Indianapolis Center
10:04PM 38.9397 -87.6447 172° South 458 527 41,000  Level Indianapolis Center
10:05PM 38.8139 -87.6219 172° South 455 524 41,000  Level Indianapolis Center
10:06PM 38.6889 -87.6000 172° South 453 521 41,000  Level Indianapolis Center
10:07PM 38.5639 -87.5786 172° South 454 522 41,000  Level Indianapolis Center
10:08PM 38.4133 -87.5528 172° South 456 525 41,000  Level Indianapolis Center
10:09PM 38.2892 -87.5317 172° South 454 522 41,000  Level Indianapolis Center
10:10PM 38.1650 -87.5097 172° South 454 522 41,000  Level Indianapolis Center
10:11PM 38.0414 -87.4883 172° South 451 519 41,000  Level Indianapolis Center
10:12PM 37.9178 -87.4656 172° South 450 518 41,000  Level Indianapolis Center
10:13PM 37.7939 -87.4439 172° South 450 518 41,000  Level Indianapolis Center
10:14PM 37.6592 -87.4214 172° South 447 514 41,000  Level Indianapolis Center
10:15PM 37.5508 -87.4064 174° South 447 514 41,000  Level Memphis Center
10:16PM 37.4253 -87.3850 172° South 452 520 41,000  Level Memphis Center
10:17PM 37.3019 -87.3636 172° South 452 520 41,000  Level Memphis Center
10:18PM 37.1744 -87.3422 172° South 457 526 41,000  Level Memphis Center
10:19PM 37.0508 -87.3211 172° South 457 526 41,000  Level Memphis Center
10:20PM 36.9253 -87.3000 172° South 462 532 41,000  Level Memphis Center
10:21PM 36.7894 -87.2767 172° South 462 532 41,000  Level Memphis Center
10:22PM 36.6639 -87.2556 172° South 462 532 41,000  Level Memphis Center
10:23PM 36.5425 -87.2369 173° South 456 525 41,000  Level Memphis Center
10:24PM 36.4189 -87.2158 172° South 456 525 41,000  Level Memphis Center
10:25PM 36.2933 -87.1975 173° South 456 525 41,000  Level Memphis Center
10:26PM 36.1719 -87.1739 171° South 456 525 41,000  Level Memphis Center
10:27PM 36.0483 -87.1531 172° South 451 519 41,000 -180 Level Memphis Center
10:28PM 35.9289 -87.1322 172° South 446 513 40,700 -660 Descending Memphis Center
10:29PM 35.8033 -87.1114 172° South 446 513 39,700 -960 Descending Memphis Center
10:30PM 35.6817 -87.0881 171° South 446 513 38,800 -960 Descending Memphis Center
10:32PM 35.3958 -87.0425 173° South 433 498 36,500 -1,020 Descending Atlanta Center
10:33PM 35.2731 -87.0253 173° South 433 498 35,500 -960 Descending Atlanta Center
10:34PM 35.1486 -87.0031 172° South 444 511 34,600 -960 Descending Atlanta Center
10:35PM 35.0636 -86.9856 170° South 450 518 34,000 -1,320 Descending Memphis Center
10:36PM 34.9400 -86.9653 172° South 465 535 32,500 -1,500 Descending Memphis Center
10:37PM 34.8247 -86.9469 173° South 465 535 31,100 -2,400 Descending Memphis Center
10:38PM 34.7011 -86.9267 172° South 465 535 27,700 -3,240 Descending Memphis Center
10:39PM 34.5797 -86.9089 173° South 455 524 24,700 -3,240 Descending Memphis Center
10:40PM 34.5039 -86.8997 174° South 437 503 22,700 -3,180 Descending Atlanta Center
10:41PM 34.3897 -86.8783 171° South 418 481 19,800 -2,520 Descending Atlanta Center
10:42PM 34.2900 -86.8647 174° South 413 475 17,700 -2,700 Descending Atlanta Center
10:42PM 34.2503 -86.8633 178° South 394 453 16,400 -3,420 Descending Atlanta Center
10:42PM 34.1836 -86.8561 175° South 390 449 14,700 -2,580 Descending Atlanta Center
10:44PM 34.0800 -86.8228 165° South 397 457 12,000 -2,280 Descending Atlanta Center
10:45PM 33.9933 -86.7797 158° South 364 419 10,000 -1,980 Descending Atlanta Center
10:46PM 33.9169 -86.7422 158° South 324 373 8,100 -2,100 Descending Atlanta Center
10:47PM 33.8467 -86.7100 159° South 297 342 5,900 -1,920 Descending Atlanta Center
10:48PM 33.7806 -86.6781 158° South 275 316 4,300 -1,500 Descending Atlanta Center
10:49PM 33.7186 -86.6511 160° South 254 292 2,900 -900 Descending Atlanta Center
10:50PM 33.6683 -86.6597 188° South 197 227 2,500 -420 Descending Atlanta Center
10:51PM 33.6200 -86.6706 191° South 132 152 2,100 -480 Descending Atlanta Center
10:51PM 33.5986 -86.6950 224° Southwest 117 135 1,600 -660 Descending Atlanta Center